Time;durP1;ratioP1;P1;durP2;ratioP2;P2;SDS_P1;SDS_P2;PMS_P1;PMS_P2;Temp;Humidity;BMP_temperature;BMP_pressure;BME280_temperature;BME280_humidity;BME280_pressure;Samples;Min_cycle;Max_cycle;Signal;HPM_P1;HPM_P2
2022/01/12 00:00:18;;;;;;;27.10;16.83;;;;;;;1.72;87.81;103490.31;5093342;28;20024;-84
2022/01/12 00:02:44;;;;;;;30.02;17.55;;;;;;;1.70;87.99;103492.91;5091147;28;20044;-84
2022/01/12 00:05:10;;;;;;;29.33;17.23;;;;;;;1.73;88.34;103508.50;5090761;28;20488;-84
2022/01/12 00:07:35;;;;;;;25.40;16.30;;;;;;;1.73;88.34;103508.50;5083602;28;20034;-84
2022/01/12 00:10:00;;;;;;;30.48;17.15;;;;;;;1.75;88.74;103506.78;5092697;28;20045;-84
2022/01/12 00:12:28;;;;;;;28.55;17.67;;;;;;;1.75;88.57;103511.97;5078035;28;20021;-83
2022/01/12 00:14:54;;;;;;;30.02;17.98;;;;;;;1.78;88.29;103522.38;5090737;28;20152;-83
2022/01/12 00:17:22;;;;;;;33.00;18.38;;;;;;;1.80;88.25;103525.84;5091168;28;20124;-83
2022/01/12 00:19:48;;;;;;;25.05;16.75;;;;;;;1.80;87.73;103515.44;5082977;28;20016;-84
2022/01/12 00:22:14;;;;;;;28.85;17.17;;;;;;;1.82;88.19;103529.31;5088795;28;20115;-84
2022/01/12 00:33:11;;;;;;;31.05;17.90;;;;;;;1.87;87.41;103517.22;5085372;28;20132;-83
2022/01/12 00:35:40;;;;;;;30.20;17.30;;;;;;;1.89;87.22;103531.06;5089980;28;20120;-83
2022/01/12 00:38:05;;;;;;;30.13;17.65;;;;;;;1.88;87.87;103531.06;5091841;28;20032;-83
2022/01/12 00:40:31;;;;;;;29.73;17.52;;;;;;;1.89;87.85;103536.25;5081065;28;20209;-84
2022/01/12 00:42:56;;;;;;;28.83;17.33;;;;;;;1.92;87.51;103544.91;5091031;28;20059;-83
2022/01/12 00:45:22;;;;;;;32.25;17.90;;;;;;;1.92;87.87;103540.59;5081002;28;20034;-84
2022/01/12 00:47:47;;;;;;;28.17;16.90;;;;;;;1.94;88.33;103548.38;5090526;28;20078;-84
2022/01/12 00:50:13;;;;;;;31.42;18.92;;;;;;;1.91;88.42;103549.25;5090696;28;20024;-84
2022/01/12 00:52:38;;;;;;;29.08;18.58;;;;;;;1.95;88.88;103563.09;5090085;28;20020;-84
2022/01/12 00:55:04;;;;;;;35.00;18.95;;;;;;;1.96;89.52;103557.06;5080633;28;20531;-83
2022/01/12 00:57:30;;;;;;;31.58;18.98;;;;;;;1.95;88.95;103555.31;5074354;28;20075;-84
2022/01/12 00:59:56;;;;;;;30.58;18.83;;;;;;;1.92;90.37;103558.75;5091518;28;20024;-84
2022/01/12 01:02:21;;;;;;;31.75;19.40;;;;;;;1.94;91.07;103563.97;5089409;28;20028;-83
2022/01/12 01:04:47;;;;;;;34.75;20.65;;;;;;;1.97;91.21;103571.78;5101729;28;20017;-83
2022/01/12 01:07:12;;;;;;;33.08;20.23;;;;;;;1.93;91.54;103570.03;5078046;28;20437;-83
2022/01/12 01:09:43;;;;;;;38.97;20.67;;;;;;;1.91;91.62;103570.00;5089433;28;20031;-82
2022/01/12 01:12:09;;;;;;;35.28;20.90;;;;;;;1.94;91.62;103571.75;5106646;28;20356;-82
2022/01/12 01:14:47;;;;;;;37.90;21.75;;;;;;;1.96;92.44;103577.81;5089088;28;20111;-81
2022/01/12 01:25:33;;;;;;;37.47;22.13;;;;;;;1.85;93.25;103560.47;5089660;28;20089;-82
2022/01/12 01:28:00;;;;;;;35.22;21.38;;;;;;;1.83;94.00;103557.00;5090227;28;20122;-82
2022/01/12 01:30:25;;;;;;;37.53;22.65;;;;;;;1.81;93.42;103552.66;5088326;28;20095;-82
2022/01/12 01:32:50;;;;;;;37.92;23.17;;;;;;;1.80;94.78;103554.38;5088932;28;20206;-81
2022/01/12 01:35:18;;;;;;;37.47;23.05;;;;;;;1.77;94.36;103554.38;5104795;28;20032;-82
2022/01/12 01:37:43;;;;;;;43.05;24.40;;;;;;;1.72;94.43;103566.44;5087610;28;20012;-81
2022/01/12 01:40:10;;;;;;;38.90;22.85;;;;;;;1.71;94.59;103572.50;5089584;28;20050;-81
2022/01/12 01:53:52;;;;;;;46.80;25.10;;;;;;;1.66;96.34;103588.91;5038291;28;20093;-82
2022/01/12 01:56:19;;;;;;;41.78;25.80;;;;;;;1.64;96.61;103583.69;5072715;28;20404;-81
2022/01/12 01:58:45;;;;;;;46.85;25.65;;;;;;;1.60;96.87;103553.38;5086863;28;20028;-82
2022/01/12 02:01:10;;;;;;;45.22;25.65;;;;;;;1.60;96.71;103553.38;5088893;28;20028;-82
2022/01/12 02:03:35;;;;;;;48.17;26.05;;;;;;;1.59;96.55;103554.22;5088513;28;20023;-82
2022/01/12 02:06:03;;;;;;;42.13;24.40;;;;;;;1.58;97.01;103539.50;5087300;28;20430;-82
2022/01/12 02:08:29;;;;;;;39.58;24.40;;;;;;;1.56;97.17;103536.03;5089126;28;20076;-82
2022/01/12 02:10:55;;;;;;;47.25;25.88;;;;;;;1.57;97.08;103545.56;5088835;28;20071;-82
2022/01/12 02:13:21;;;;;;;46.15;25.50;;;;;;;1.55;97.06;103545.56;5080124;28;20059;-83
2022/01/12 02:15:47;;;;;;;41.33;24.98;;;;;;;1.56;97.02;103551.63;5088394;28;20085;-82
2022/01/12 02:40:26;;;;;;;48.38;24.63;;;;;;;1.50;97.65;103582.72;5087492;28;20024;-83
2022/01/12 02:53:50;;;;;;;48.63;25.92;;;;;;;1.50;98.13;103587.91;5058192;28;20427;-82
2022/01/12 02:56:22;;;;;;;51.33;26.83;;;;;;;1.50;97.99;103588.75;5087749;28;20032;-83
2022/01/12 02:58:49;;;;;;;49.38;27.08;;;;;;;1.51;97.94;103594.81;5088513;28;20034;-83
2022/01/12 03:04:07;;;;;;;47.35;26.58;;;;;;;1.54;98.63;103594.84;5083944;28;20028;-83
2022/01/12 03:06:37;;;;;;;53.75;27.05;;;;;;;1.52;98.26;103602.63;5077869;28;20403;-83
2022/01/12 03:09:05;;;;;;;48.13;27.55;;;;;;;1.53;98.45;103619.03;5079872;28;20034;-83
2022/01/12 03:11:32;;;;;;;51.42;27.52;;;;;;;1.52;98.04;103618.19;5079650;28;20020;-83
2022/01/12 03:13:58;;;;;;;47.80;28.10;;;;;;;1.54;98.65;103629.44;5085219;28;20086;-83
2022/01/12 03:16:25;;;;;;;52.10;27.65;;;;;;;1.54;98.30;103631.16;5084488;28;20047;-83
2022/01/12 03:19:01;;;;;;;50.90;27.65;;;;;;;1.55;97.76;103638.09;5074873;28;20024;-83
2022/01/12 03:21:31;;;;;;;49.15;27.35;;;;;;;1.55;97.63;103641.56;5086327;28;20028;-83
2022/01/12 03:23:57;;;;;;;46.38;27.25;;;;;;;1.55;98.21;103648.47;5086729;28;20176;-83
2022/01/12 03:26:25;;;;;;;49.22;27.88;;;;;;;1.53;97.59;103640.66;5087609;28;20028;-83
2022/01/12 03:28:55;;;;;;;50.85;28.67;;;;;;;1.55;98.10;103645.88;5088449;28;20024;-83
2022/01/12 03:31:26;;;;;;;49.45;28.52;;;;;;;1.59;97.85;103645.03;5078580;28;20024;-83
2022/01/12 03:33:57;;;;;;;50.35;28.40;;;;;;;1.56;97.80;103645.00;5081192;28;20205;-83
2022/01/12 03:38:48;;;;;;;51.80;28.00;;;;;;;1.58;97.91;103635.50;5088569;28;20036;-83
2022/01/12 03:41:13;;;;;;;51.80;27.88;;;;;;;1.60;98.10;103633.81;5088171;28;20108;-82
2022/01/12 03:43:39;;;;;;;48.72;27.65;;;;;;;1.59;98.21;103629.47;5087930;28;20110;-82
2022/01/12 03:46:06;;;;;;;50.30;27.95;;;;;;;1.62;98.73;103639.03;5088631;28;20038;-81
2022/01/12 03:48:31;;;;;;;51.33;28.52;;;;;;;1.57;98.42;103620.81;5085793;28;20859;-81
2022/01/12 03:50:56;;;;;;;53.75;28.75;;;;;;;1.61;98.20;103621.72;5098121;28;20036;-81
2022/01/12 03:53:22;;;;;;;53.95;29.00;;;;;;;1.61;98.24;103632.97;5084748;28;20117;-81
2022/01/12 03:55:48;;;;;;;52.47;29.02;;;;;;;1.58;98.16;103631.19;5083123;28;20114;-82
2022/01/12 03:58:14;;;;;;;54.15;29.27;;;;;;;1.59;98.45;103639.84;5090466;28;20560;-82
2022/01/12 04:00:39;;;;;;;53.92;29.70;;;;;;;1.58;98.62;103638.97;5079813;28;20090;-82
2022/01/12 04:03:07;;;;;;;50.13;29.63;;;;;;;1.60;98.42;103651.09;5101464;28;20067;-82
2022/01/12 04:08:19;;;;;;;55.10;28.88;;;;;;;1.62;98.39;103668.44;5085647;28;20039;-82
2022/01/12 04:10:49;;;;;;;55.38;29.65;;;;;;;1.59;98.48;103660.59;5090938;28;20028;-82
2022/01/12 04:13:15;;;;;;;57.25;30.08;;;;;;;1.61;98.57;103658.94;5082644;28;20103;-82
2022/01/12 04:15:43;;;;;;;53.97;29.30;;;;;;;1.57;98.67;103654.53;5088943;28;20043;-82
2022/01/12 04:18:09;;;;;;;57.92;31.10;;;;;;;1.60;98.50;103666.66;5088959;28;20032;-82
2022/01/12 04:20:38;;;;;;;61.08;31.35;;;;;;;1.58;98.31;103659.75;5089876;28;20373;-82
2022/01/12 04:23:18;;;;;;;61.42;31.60;;;;;;;1.57;98.99;103647.63;5089178;28;20024;-82
2022/01/12 04:25:52;;;;;;;61.20;32.15;;;;;;;1.60;98.86;103664.94;5079094;28;20086;-82
2022/01/12 04:28:18;;;;;;;59.25;31.90;;;;;;;1.59;99.28;103660.59;5079580;28;20044;-82
2022/01/12 04:30:45;;;;;;;63.03;32.78;;;;;;;1.60;99.09;103658.88;5088658;28;20043;-82
2022/01/12 04:33:14;;;;;;;62.45;33.63;;;;;;;1.61;98.72;103658.94;5089213;28;20192;-82
2022/01/12 04:35:47;;;;;;;63.78;33.80;;;;;;;1.60;99.15;103651.97;5090834;28;20027;-82
2022/01/12 04:38:13;;;;;;;63.58;33.63;;;;;;;1.61;99.06;103652.88;5082084;28;20032;-81
2022/01/12 04:40:39;;;;;;;62.75;33.00;;;;;;;1.59;99.03;103650.22;5089340;28;20403;-82
2022/01/12 04:43:07;;;;;;;62.67;33.30;;;;;;;1.61;99.23;103658.94;5084287;28;20020;-83
2022/01/12 04:45:39;;;;;;;63.03;32.70;;;;;;;1.58;99.29;103653.69;5082459;28;20028;-82
2022/01/12 04:50:37;;;;;;;66.35;33.80;;;;;;;1.63;99.18;103651.16;5077687;28;20120;-83
2022/01/12 04:53:05;;;;;;;68.93;35.60;;;;;;;1.63;99.51;103649.44;5077914;28;20095;-82
2022/01/12 04:55:31;;;;;;;57.85;32.35;;;;;;;1.62;99.16;103644.22;5086523;28;20028;-82
2022/01/12 04:57:56;;;;;;;61.63;34.13;;;;;;;1.61;99.74;103638.16;5090298;28;20449;-83
2022/01/12 05:00:23;;;;;;;68.30;34.92;;;;;;;1.61;99.58;103632.97;5087652;28;20764;-82
2022/01/12 05:13:37;;;;;;;64.43;35.10;;;;;;;1.60;99.74;103644.19;5081529;28;20030;-83
2022/01/12 05:16:04;;;;;;;67.00;36.42;;;;;;;1.58;99.54;103643.31;5087693;28;20032;-83
2022/01/12 05:18:31;;;;;;;63.42;34.55;;;;;;;1.61;100.00;103653.75;5088888;28;20031;-83
2022/01/12 05:20:57;;;;;;;69.53;34.85;;;;;;;1.61;100.00;103648.53;5084846;28;20024;-83
2022/01/12 05:23:24;;;;;;;66.82;35.47;;;;;;;1.61;99.82;103643.34;5088206;28;20027;-84
2022/01/12 05:25:51;;;;;;;70.28;35.40;;;;;;;1.60;100.00;103640.72;5087880;28;20522;-83
2022/01/12 05:28:17;;;;;;;66.80;35.70;;;;;;;1.62;100.00;103646.81;5084740;28;20044;-83
2022/01/12 05:30:43;;;;;;;65.10;35.35;;;;;;;1.61;100.00;103643.34;5077253;28;20024;-83
2022/01/12 05:33:09;;;;;;;67.32;36.10;;;;;;;1.62;99.75;103655.47;5081215;28;20400;-83
2022/01/12 05:35:34;;;;;;;68.32;36.58;;;;;;;1.60;99.87;103657.16;5103883;28;20052;-83
2022/01/12 05:38:02;;;;;;;67.90;35.75;;;;;;;1.61;100.00;103664.13;5086209;28;20126;-83
2022/01/12 05:40:27;;;;;;;69.75;37.75;;;;;;;1.61;99.80;103668.44;5073969;28;20081;-83
2022/01/12 05:42:54;;;;;;;66.88;36.90;;;;;;;1.61;100.00;103669.31;5085855;28;20425;-82
2022/01/12 05:45:21;;;;;;;70.60;36.95;;;;;;;1.62;100.00;103673.63;5089555;28;20031;-82
2022/01/12 05:50:13;;;;;;;70.20;37.03;;;;;;;1.62;100.00;103667.59;5088628;28;20357;-83
2022/01/12 05:52:39;;;;;;;66.95;36.05;;;;;;;1.64;99.99;103678.84;5089828;28;20219;-83
2022/01/12 05:55:05;;;;;;;69.60;35.70;;;;;;;1.63;99.83;103670.19;5081906;28;20063;-83
2022/01/12 05:57:31;;;;;;;70.85;37.40;;;;;;;1.64;100.00;103674.53;5081087;28;20020;-83
2022/01/12 05:59:58;;;;;;;71.22;37.50;;;;;;;1.61;100.00;103658.06;5087610;28;20051;-82
2022/01/12 06:02:24;;;;;;;71.80;37.60;;;;;;;1.61;100.00;103668.44;5088908;28;20024;-82
2022/01/12 06:04:49;;;;;;;74.28;39.15;;;;;;;1.59;100.00;103668.41;5088944;28;20369;-82
2022/01/12 06:07:15;;;;;;;75.32;37.85;;;;;;;1.57;100.00;103672.69;5084770;28;20043;-83
2022/01/12 06:09:40;;;;;;;75.72;37.85;;;;;;;1.61;100.00;103674.50;5087734;28;20023;-82
2022/01/12 06:12:07;;;;;;;79.63;39.45;;;;;;;1.59;100.00;103676.19;5086669;28;20036;-82
2022/01/12 06:14:33;;;;;;;72.65;38.22;;;;;;;1.62;100.00;103681.41;5085319;28;20016;-83
2022/01/12 06:16:59;;;;;;;74.40;39.05;;;;;;;1.60;100.00;103675.31;5078848;28;20035;-83
2022/01/12 06:19:24;;;;;;;75.25;39.10;;;;;;;1.57;100.00;103676.16;5087481;28;20035;-82
2022/01/12 06:21:50;;;;;;;78.57;39.10;;;;;;;1.62;100.00;103690.94;5080573;28;20036;-82
2022/01/12 06:24:15;;;;;;;75.20;38.05;;;;;;;1.61;100.00;103695.25;5086980;28;20074;-82
2022/01/12 06:26:42;;;;;;;75.50;38.45;;;;;;;1.60;100.00;103703.88;5087450;28;20020;-82
2022/01/12 06:31:37;;;;;;;83.72;39.65;;;;;;;1.61;100.00;103709.94;5079429;28;20035;-83
2022/01/12 06:34:02;;;;;;;74.63;38.20;;;;;;;1.61;100.00;103710.81;5088393;28;20055;-83
2022/01/12 06:36:27;;;;;;;78.22;39.13;;;;;;;1.60;100.00;103718.56;5087108;28;20020;-83
2022/01/12 06:38:53;;;;;;;75.88;38.60;;;;;;;1.60;100.00;103719.44;5087798;28;20602;-82
2022/01/12 06:41:22;;;;;;;72.80;39.55;;;;;;;1.63;100.00;103729.88;5072802;28;20078;-82
2022/01/12 06:43:47;;;;;;;72.95;38.38;;;;;;;1.62;100.00;103722.94;5073252;28;20424;-82
2022/01/12 06:46:19;;;;;;;75.35;38.15;;;;;;;1.61;100.00;103726.41;5086908;28;20120;-82
2022/01/12 06:48:45;;;;;;;67.55;37.53;;;;;;;1.63;100.00;103742.84;5084821;28;20395;-82
2022/01/12 06:51:10;;;;;;;73.63;39.83;;;;;;;1.65;100.00;103743.72;5088457;28;20028;-82
2022/01/12 06:53:36;;;;;;;71.78;37.53;;;;;;;1.65;100.00;103733.34;5078998;28;20023;-82
2022/01/12 06:56:02;;;;;;;74.10;38.13;;;;;;;1.66;100.00;103727.31;5085280;28;20411;-82
2022/01/12 06:58:27;;;;;;;73.70;38.80;;;;;;;1.66;100.00;103734.22;5084699;28;20028;-82
2022/01/12 07:00:53;;;;;;;72.60;38.67;;;;;;;1.69;100.00;103739.44;5087813;28;20077;-81
2022/01/12 07:03:18;;;;;;;76.05;38.80;;;;;;;1.70;100.00;103741.16;5088226;28;20021;-82
2022/01/12 07:05:43;;;;;;;76.95;38.00;;;;;;;1.66;100.00;103731.63;5087680;28;20542;-82
2022/01/12 07:08:09;;;;;;;74.75;38.85;;;;;;;1.71;100.00;103738.59;5076964;28;20070;-82
2022/01/12 07:10:34;;;;;;;72.32;38.22;;;;;;;1.72;100.00;103753.31;5067572;28;20035;-82
2022/01/12 07:13:00;;;;;;;72.60;38.53;;;;;;;1.73;100.00;103757.63;5087317;28;20048;-82
2022/01/12 07:15:25;;;;;;;69.45;37.22;;;;;;;1.73;100.00;103765.44;5087417;28;20036;-82
2022/01/12 07:17:51;;;;;;;75.53;38.30;;;;;;;1.71;100.00;103753.28;5088522;28;20032;-83
2022/01/12 07:20:16;;;;;;;74.57;38.55;;;;;;;1.72;100.00;103755.91;5079150;28;20044;-82
2022/01/12 07:22:42;;;;;;;76.70;40.22;;;;;;;1.74;100.00;103759.38;5080045;28;20082;-82
2022/01/12 07:25:08;;;;;;;75.38;39.42;;;;;;;1.74;100.00;103764.56;5084990;28;20024;-82
2022/01/12 07:27:33;;;;;;;77.05;39.88;;;;;;;1.74;100.00;103758.50;5089197;28;20024;-82
2022/01/12 07:29:59;;;;;;;78.18;38.95;;;;;;;1.72;100.00;103766.28;5090958;28;20016;-82
2022/01/12 07:32:24;;;;;;;71.80;38.95;;;;;;;1.74;100.00;103769.75;5106165;28;20543;-83
2022/01/12 07:34:50;;;;;;;73.88;39.33;;;;;;;1.75;100.00;103766.31;5106519;28;20051;-83
2022/01/12 07:37:16;;;;;;;72.53;38.47;;;;;;;1.77;100.00;103776.72;5090131;28;20028;-82
2022/01/12 07:39:41;;;;;;;69.65;38.33;;;;;;;1.76;100.00;103783.63;5083214;28;20054;-83
2022/01/12 07:42:07;;;;;;;69.68;37.83;;;;;;;1.78;100.00;103792.28;5089527;28;20398;-82
2022/01/12 07:44:32;;;;;;;77.75;39.65;;;;;;;1.78;100.00;103791.44;5090317;28;20032;-82
2022/01/12 07:46:58;;;;;;;77.20;40.50;;;;;;;1.80;100.00;103797.50;5091131;28;20394;-83
2022/01/12 07:49:23;;;;;;;81.63;39.92;;;;;;;1.77;100.00;103798.34;5073968;28;20463;-82
2022/01/12 07:51:48;;;;;;;75.53;38.90;;;;;;;1.79;100.00;103804.41;5091438;28;20024;-82
2022/01/12 07:54:14;;;;;;;76.82;38.80;;;;;;;1.80;100.00;103808.75;5090095;28;20039;-83
2022/01/12 07:56:39;;;;;;;79.55;40.42;;;;;;;1.81;100.00;103807.91;5088371;28;20031;-82
2022/01/12 07:59:04;;;;;;;79.22;40.13;;;;;;;1.83;100.00;103816.56;5090147;28;20051;-83
2022/01/12 08:01:30;;;;;;;80.72;40.83;;;;;;;1.82;100.00;103825.22;5089104;28;20020;-83
2022/01/12 08:03:55;;;;;;;82.50;41.28;;;;;;;1.81;100.00;103827.78;5083837;28;20621;-83
2022/01/12 08:06:20;;;;;;;76.90;38.65;;;;;;;1.82;100.00;103829.53;5089767;28;20023;-83
2022/01/12 08:08:46;;;;;;;84.28;42.45;;;;;;;1.83;100.00;103834.75;5083670;28;20029;-83
2022/01/12 08:11:15;;;;;;;78.57;40.58;;;;;;;1.84;100.00;103836.47;5090891;28;20031;-82
2022/01/12 08:13:42;;;;;;;78.32;39.95;;;;;;;1.84;100.00;103844.28;5087138;28;20405;-83
2022/01/12 08:16:08;;;;;;;83.90;41.33;;;;;;;1.88;100.00;103856.41;5100554;28;20025;-83
2022/01/12 08:18:34;;;;;;;92.68;43.22;;;;;;;1.87;100.00;103852.09;5088634;28;20108;-83
2022/01/12 08:21:00;;;;;;;95.22;43.80;;;;;;;1.89;100.00;103850.38;5098732;28;20020;-83
2022/01/12 08:23:26;;;;;;;96.45;44.38;;;;;;;1.92;100.00;103861.66;5084257;28;20024;-83
2022/01/12 08:25:51;;;;;;;107.85;43.92;;;;;;;1.92;100.00;103857.31;5082575;28;20529;-83
2022/01/12 08:28:16;;;;;;;104.70;46.40;;;;;;;1.95;100.00;103864.28;5084305;28;20032;-84
2022/01/12 08:30:42;;;;;;;111.82;48.47;;;;;;;1.94;100.00;103862.53;5085587;28;20067;-83
2022/01/12 08:33:07;;;;;;;104.03;46.58;;;;;;;1.94;100.00;103862.53;5082420;28;20127;-83
2022/01/12 08:35:33;;;;;;;109.40;45.40;;;;;;;1.97;100.00;103859.97;5088020;28;20491;-83
2022/01/12 08:37:58;;;;;;;106.65;45.13;;;;;;;1.95;100.00;103852.16;5082400;28;20048;-83
2022/01/12 08:40:25;;;;;;;111.20;46.90;;;;;;;1.99;100.00;103863.44;5088862;28;20066;-84
2022/01/12 08:42:50;;;;;;;107.15;45.85;;;;;;;1.98;100.00;103857.38;5090603;28;20040;-83
2022/01/12 08:45:17;;;;;;;112.88;45.22;;;;;;;1.99;100.00;103853.06;5089475;28;20157;-82
2022/01/12 08:47:45;;;;;;;121.95;47.22;;;;;;;2.02;100.00;103866.97;5081798;28;20123;-82
2022/01/12 08:50:14;;;;;;;111.13;46.30;;;;;;;2.02;100.00;103860.91;5106264;28;20077;-82
2022/01/12 08:52:47;;;;;;;111.72;47.45;;;;;;;2.07;100.00;103867.03;5089707;28;20475;-82
2022/01/12 08:55:14;;;;;;;;;;;;;;;2.14;100.00;103863.63;5082823;28;20400;-84
2022/01/12 08:57:39;;;;;;;128.15;46.40;;;;;;;2.09;100.00;103865.31;5078551;28;20208;-84
2022/01/12 09:00:06;;;;;;;123.13;47.80;;;;;;;2.06;100.00;103860.94;5088834;28;20020;-84
2022/01/12 09:02:32;;;;;;;127.68;48.53;;;;;;;2.13;100.00;103872.25;5080721;28;20146;-84
2022/01/12 09:04:59;;;;;;;124.82;47.90;;;;;;;2.10;100.00;103867.03;5090626;28;20126;-84
2022/01/12 09:07:24;;;;;;;123.32;47.97;;;;;;;2.15;100.00;103879.22;5088017;28;20111;-85
2022/01/12 09:09:49;;;;;;;114.72;48.40;;;;;;;2.17;100.00;103885.28;5082344;28;20131;-85
2022/01/12 09:12:15;;;;;;;120.70;47.10;;;;;;;2.20;100.00;103890.50;5083105;28;20020;-85
2022/01/12 09:14:40;;;;;;;129.10;48.55;;;;;;;2.23;100.00;103900.06;5076618;28;20032;-82
2022/01/12 09:17:16;;;;;;;126.88;47.80;;;;;;;2.25;100.00;103902.69;5074691;28;20035;-83
2022/01/12 09:19:42;;;;;;;126.28;48.08;;;;;;;2.28;100.00;103913.09;5088434;28;20020;-83
2022/01/12 09:22:07;;;;;;;126.82;47.15;;;;;;;2.29;100.00;103910.50;5091562;28;20334;-83
2022/01/12 09:24:33;;;;;;;120.25;47.25;;;;;;;2.33;100.00;103909.69;5090018;28;20031;-83
2022/01/12 09:26:58;;;;;;;116.35;45.03;;;;;;;2.33;100.00;103907.09;5089857;28;20036;-82
2022/01/12 09:29:24;;;;;;;134.52;47.88;;;;;;;2.36;100.00;103914.91;5089061;28;20047;-84
2022/01/12 09:31:50;;;;;;;119.15;46.53;;;;;;;2.39;100.00;103927.94;5082034;28;20034;-83
2022/01/12 09:34:15;;;;;;;114.28;46.53;;;;;;;2.38;100.00;103923.59;5089147;28;20488;-82
2022/01/12 09:36:44;;;;;;;127.63;47.08;;;;;;;2.41;100.00;103925.38;5089880;28;20028;-82
2022/01/12 09:39:10;;;;;;;115.45;46.85;;;;;;;2.45;100.00;103933.22;5090226;28;20080;-81
2022/01/12 09:41:36;;;;;;;123.38;45.08;;;;;;;2.45;100.00;103933.22;5088087;28;20020;-82
2022/01/12 09:44:02;;;;;;;140.43;45.13;;;;;;;2.51;100.00;103933.25;5081924;28;20549;-82
2022/01/12 09:46:28;;;;;;;105.75;43.40;;;;;;;2.50;100.00;103930.66;5086235;28;20032;-84
2022/01/12 09:48:54;;;;;;;99.03;37.88;;;;;;;2.53;100.00;103935.00;5088229;28;20031;-84
2022/01/12 09:51:21;;;;;;;90.13;35.25;;;;;;;2.56;100.00;103932.44;5087567;28;20064;-81
2022/01/12 09:53:47;;;;;;;79.75;32.00;;;;;;;2.59;100.00;103935.06;5090049;28;20419;-82
2022/01/12 09:56:21;;;;;;;77.20;30.02;;;;;;;2.57;100.00;103932.44;5087678;28;20025;-82
2022/01/12 09:58:51;;;;;;;70.60;31.38;;;;;;;2.59;100.00;103938.53;5087682;28;20527;-82
2022/01/12 10:01:29;;;;;;;66.82;31.05;;;;;;;2.63;100.00;103939.41;5088216;28;20032;-82
2022/01/12 10:04:25;;;;;;;77.25;31.95;;;;;;;2.66;100.00;103948.09;5087357;28;20038;-83
2022/01/12 10:07:03;;;;;;;77.68;31.17;;;;;;;2.65;100.00;103955.91;5074029;28;20031;-82
2022/01/12 10:09:39;;;;;;;76.60;31.08;;;;;;;2.67;100.00;103962.84;5099047;28;20105;-82
2022/01/12 10:12:18;;;;;;;68.25;30.92;;;;;;;2.69;100.00;103974.13;5088160;28;20492;-82
2022/01/12 10:14:55;;;;;;;71.25;31.17;;;;;;;2.71;100.00;103976.75;5081105;28;20408;-82
2022/01/12 10:17:32;;;;;;;87.25;32.30;;;;;;;2.73;100.00;103977.63;5081745;28;20039;-82
2022/01/12 10:20:18;;;;;;;69.88;31.17;;;;;;;2.75;100.00;103968.97;5087061;28;20142;-82
2022/01/12 10:23:06;;;;;;;77.10;32.00;;;;;;;2.77;100.00;103966.41;5088204;28;20020;-82
2022/01/12 10:25:33;;;;;;;69.40;31.70;;;;;;;2.74;100.00;103968.97;5075422;28;20032;-82
2022/01/12 10:27:58;;;;;;;64.05;30.30;;;;;;;2.75;100.00;103962.91;5085257;28;20034;-83
2022/01/12 10:30:26;;;;;;;75.60;30.90;;;;;;;2.73;100.00;103957.69;5088467;28;20023;-80
2022/01/12 10:33:04;;;;;;;66.38;29.13;;;;;;;2.78;100.00;103950.81;5083365;28;20052;-80
2022/01/12 10:35:32;;;;;;;66.78;29.67;;;;;;;2.79;100.00;103943.88;5102919;28;20039;-82
2022/01/12 10:38:06;;;;;;;79.57;31.35;;;;;;;2.80;100.00;103945.63;5088705;28;20113;-81
2022/01/12 10:40:46;;;;;;;64.28;30.38;;;;;;;2.78;100.00;103936.94;5079991;28;20032;-81
2022/01/12 10:43:44;;;;;;;66.90;30.05;;;;;;;2.82;100.00;103954.34;5069056;28;20020;-79
2022/01/12 10:46:18;;;;;;;71.00;31.88;;;;;;;2.82;100.00;103960.41;5087105;28;20020;-79
2022/01/12 10:48:49;;;;;;;72.70;29.83;;;;;;;2.81;100.00;103953.47;5089274;28;20111;-79
2022/01/12 10:51:19;;;;;;;83.22;32.38;;;;;;;2.82;100.00;103962.13;5105408;28;20031;-82
2022/01/12 10:53:45;;;;;;;77.07;32.13;;;;;;;2.82;100.00;103959.53;5089157;28;20426;-79
2022/01/12 10:56:14;;;;;;;75.82;32.10;;;;;;;2.86;100.00;103960.44;5088332;28;20024;-79
2022/01/12 10:58:45;;;;;;;75.97;32.13;;;;;;;2.83;100.00;103956.94;5089055;28;20028;-79
2022/01/12 11:01:16;;;;;;;78.90;32.78;;;;;;;2.87;100.00;103963.03;5088613;28;20103;-79
2022/01/12 11:03:44;;;;;;;95.72;32.47;;;;;;;2.85;100.00;103961.28;5084038;28;20016;-79
2022/01/12 11:06:10;;;;;;;79.95;32.22;;;;;;;2.88;100.00;103975.19;5085873;28;20544;-79
2022/01/12 11:08:38;;;;;;;72.93;32.00;;;;;;;2.89;100.00;103969.13;5088237;28;20103;-79
2022/01/12 11:11:04;;;;;;;67.30;29.70;;;;;;;2.88;100.00;103964.78;5086679;28;20094;-79
2022/01/12 11:13:31;;;;;;;72.22;31.83;;;;;;;2.91;100.00;103964.81;5087593;28;20019;-79
2022/01/12 11:15:57;;;;;;;85.70;33.75;;;;;;;2.91;100.00;103953.53;5089127;28;20089;-81
2022/01/12 11:18:26;;;;;;;80.05;32.92;;;;;;;2.89;100.00;103956.13;5098254;28;20036;-80
2022/01/12 11:20:58;;;;;;;77.43;31.25;;;;;;;2.93;100.00;103957.00;5084315;28;20070;-80
2022/01/12 11:23:34;;;;;;;79.07;33.25;;;;;;;2.91;100.00;103950.94;5085418;28;20024;-80
2022/01/12 11:25:59;;;;;;;78.82;33.53;;;;;;;2.92;100.00;103961.34;5085796;28;20036;-80
2022/01/12 11:28:27;;;;;;;81.25;33.88;;;;;;;2.93;100.00;103973.50;5088343;28;20533;-80
2022/01/12 11:30:53;;;;;;;80.10;33.33;;;;;;;2.95;100.00;103973.50;5086860;28;20024;-80
2022/01/12 11:33:42;;;;;;;83.63;32.38;;;;;;;2.95;100.00;103976.97;5088040;28;20063;-80
2022/01/12 11:36:12;;;;;;;86.35;33.88;;;;;;;2.97;100.00;103974.38;5087178;28;20081;-80
2022/01/12 11:38:38;;;;;;;83.10;32.35;;;;;;;2.96;100.00;103975.25;5087219;28;20031;-80
2022/01/12 11:41:16;;;;;;;80.70;31.83;;;;;;;2.99;100.00;103983.94;5089366;28;20529;-80
2022/01/12 11:43:46;;;;;;;85.50;32.80;;;;;;;2.99;100.00;103983.94;5084821;28;20476;-80
2022/01/12 11:46:17;;;;;;;77.07;31.65;;;;;;;3.00;100.00;103970.06;5086592;28;20100;-80
2022/01/12 11:48:51;;;;;;;83.35;32.58;;;;;;;2.98;100.00;103964.00;5088795;28;20185;-80
2022/01/12 11:51:22;;;;;;;82.10;32.45;;;;;;;3.01;100.00;103964.00;5085572;28;20136;-80
2022/01/12 11:53:52;;;;;;;79.50;32.20;;;;;;;3.01;100.00;103956.22;5089478;28;20032;-80
2022/01/12 11:56:26;;;;;;;88.97;34.03;;;;;;;3.03;100.00;103954.50;5088699;28;20031;-80
2022/01/12 11:59:01;;;;;;;79.65;31.73;;;;;;;3.02;100.00;103947.53;5084308;28;20479;-80
2022/01/12 12:01:45;;;;;;;76.18;30.73;;;;;;;3.06;100.00;103944.09;5088223;28;20024;-80
2022/01/12 12:04:30;;;;;;;81.78;31.70;;;;;;;3.08;100.00;103958.00;5083361;28;20107;-80
2022/01/12 12:07:15;;;;;;;79.82;32.13;;;;;;;3.09;100.00;103964.06;5088872;28;20073;-80
2022/01/12 12:09:54;;;;;;;83.05;33.22;;;;;;;3.06;100.00;103964.91;5102712;28;20021;-80
2022/01/12 12:12:32;;;;;;;75.93;31.88;;;;;;;3.08;100.00;103963.19;5086215;28;20024;-80
2022/01/12 12:14:59;;;;;;;78.60;29.90;;;;;;;3.07;100.00;103964.06;5086430;28;20016;-80
2022/01/12 12:17:27;;;;;;;76.70;30.30;;;;;;;3.05;100.00;103963.16;5087321;28;20055;-80
2022/01/12 12:19:54;;;;;;;75.15;30.17;;;;;;;3.05;100.00;103963.16;5084961;28;20036;-80
2022/01/12 12:22:28;;;;;;;79.53;31.02;;;;;;;3.09;100.00;103961.47;5088556;28;20067;-80
2022/01/12 12:24:56;;;;;;;73.65;29.88;;;;;;;3.07;100.00;103968.38;5085624;28;20115;-80
2022/01/12 12:27:24;;;;;;;71.47;29.77;;;;;;;3.06;100.00;103970.13;5088941;28;20442;-80
2022/01/12 12:29:50;;;;;;;75.93;30.33;;;;;;;3.02;100.00;103962.28;5085674;28;20120;-80
2022/01/12 12:32:18;;;;;;;78.35;30.50;;;;;;;3.01;100.00;103969.22;5086948;28;20385;-81
2022/01/12 12:34:44;;;;;;;70.38;30.65;;;;;;;3.03;100.00;103967.50;5085539;28;20044;-80
2022/01/12 12:37:15;;;;;;;72.30;29.63;;;;;;;3.00;100.00;103959.66;5103034;28;20112;-80
2022/01/12 12:39:46;;;;;;;69.20;28.67;;;;;;;3.02;100.00;103963.16;5087475;28;20384;-80
2022/01/12 12:42:20;;;;;;;66.45;29.30;;;;;;;3.01;100.00;103961.41;5088813;28;20053;-80